Archival Weather

Yacuiba

Yacuiba, Bolivia (SLYA)

Report from: Thursday, December 7, 2023 1:00 PM -04
Current time: Tuesday, April 23, 2024 3:56 AM -04

Current weather – Weather history – Daily summaries
Weather forecast

Temperature27.0°C (80.6°F)
Heat index29.0°C (84.2°F)
Dew point21.0°C (69.8°F)
Winds 7 kts (3.6 m/s, 8.1 mph) South-Southwest (210°)
Visibility6.2 mi. (10 km)
Clouds Scattered clouds 2,000 ft. (610 m)
Ceiling: Broken clouds 7,000 ft. (2,134 m)
Altimeter29.94 in.Hg (1014 mB)
Relative humidity70 %
Density altitude1,694 ft. (516 m)
Flight conditions Visual Meteorological Conditions
Raw dataSLYA 071700Z 21007KT 9999 SCT020 BKN070 27/21 Q1014
An error has occurred. This application may no longer respond until reloaded. Reload 🗙